sensor_id;sensor_type;location;lat;lon;timestamp;P1;durP1;ratioP1;P2;durP2;ratioP2
3068;SDS011;1545;51.728;8.796;2023-11-22T00:00:02;13.40;;;8.93;;
3068;SDS011;1545;51.728;8.796;2023-11-22T00:02:28;15.03;;;8.50;;
3068;SDS011;1545;51.728;8.796;2023-11-22T00:04:54;16.23;;;9.93;;
3068;SDS011;1545;51.728;8.796;2023-11-22T00:07:20;13.40;;;8.93;;
3068;SDS011;1545;51.728;8.796;2023-11-22T00:09:46;13.93;;;8.73;;
3068;SDS011;1545;51.728;8.796;2023-11-22T00:12:12;15.97;;;9.70;;
3068;SDS011;1545;51.728;8.796;2023-11-22T00:14:38;15.43;;;9.77;;
3068;SDS011;1545;51.728;8.796;2023-11-22T00:17:03;13.57;;;9.50;;
3068;SDS011;1545;51.728;8.796;2023-11-22T00:19:29;14.50;;;9.53;;
3068;SDS011;1545;51.728;8.796;2023-11-22T00:21:55;17.50;;;10.30;;
3068;SDS011;1545;51.728;8.796;2023-11-22T00:24:21;16.80;;;9.63;;
3068;SDS011;1545;51.728;8.796;2023-11-22T00:26:46;16.73;;;9.47;;
3068;SDS011;1545;51.728;8.796;2023-11-22T00:29:12;19.27;;;10.13;;
3068;SDS011;1545;51.728;8.796;2023-11-22T00:31:37;16.17;;;9.93;;
3068;SDS011;1545;51.728;8.796;2023-11-22T00:34:04;18.97;;;10.00;;
3068;SDS011;1545;51.728;8.796;2023-11-22T00:36:29;16.47;;;9.50;;
3068;SDS011;1545;51.728;8.796;2023-11-22T00:38:55;16.00;;;9.33;;
3068;SDS011;1545;51.728;8.796;2023-11-22T00:41:21;17.70;;;10.50;;
3068;SDS011;1545;51.728;8.796;2023-11-22T00:43:46;17.17;;;10.27;;
3068;SDS011;1545;51.728;8.796;2023-11-22T00:46:12;16.83;;;10.30;;
3068;SDS011;1545;51.728;8.796;2023-11-22T00:48:37;19.30;;;10.70;;
3068;SDS011;1545;51.728;8.796;2023-11-22T00:51:03;19.00;;;11.10;;
3068;SDS011;1545;51.728;8.796;2023-11-22T00:53:33;23.03;;;11.37;;
3068;SDS011;1545;51.728;8.796;2023-11-22T00:56:01;20.40;;;11.73;;
3068;SDS011;1545;51.728;8.796;2023-11-22T00:58:27;23.37;;;11.43;;
3068;SDS011;1545;51.728;8.796;2023-11-22T01:00:52;18.13;;;10.97;;
3068;SDS011;1545;51.728;8.796;2023-11-22T01:03:18;14.50;;;10.27;;
3068;SDS011;1545;51.728;8.796;2023-11-22T01:05:44;20.63;;;11.50;;
3068;SDS011;1545;51.728;8.796;2023-11-22T01:08:11;17.03;;;10.67;;
3068;SDS011;1545;51.728;8.796;2023-11-22T01:10:38;29.77;;;11.33;;
3068;SDS011;1545;51.728;8.796;2023-11-22T01:13:04;17.67;;;10.70;;
3068;SDS011;1545;51.728;8.796;2023-11-22T01:15:29;17.17;;;10.27;;
3068;SDS011;1545;51.728;8.796;2023-11-22T01:17:55;17.43;;;10.93;;
3068;SDS011;1545;51.728;8.796;2023-11-22T01:20:20;16.77;;;11.07;;
3068;SDS011;1545;51.728;8.796;2023-11-22T01:22:48;20.43;;;11.80;;
3068;SDS011;1545;51.728;8.796;2023-11-22T01:25:14;17.03;;;11.17;;
3068;SDS011;1545;51.728;8.796;2023-11-22T01:27:39;17.83;;;11.27;;
3068;SDS011;1545;51.728;8.796;2023-11-22T01:30:05;17.00;;;10.10;;
3068;SDS011;1545;51.728;8.796;2023-11-22T01:32:34;19.83;;;11.00;;
3068;SDS011;1545;51.728;8.796;2023-11-22T01:35:00;21.87;;;12.00;;
3068;SDS011;1545;51.728;8.796;2023-11-22T01:37:26;20.57;;;10.87;;
3068;SDS011;1545;51.728;8.796;2023-11-22T01:39:52;22.27;;;11.77;;
3068;SDS011;1545;51.728;8.796;2023-11-22T01:42:19;21.23;;;12.27;;
3068;SDS011;1545;51.728;8.796;2023-11-22T01:44:45;24.13;;;11.43;;
3068;SDS011;1545;51.728;8.796;2023-11-22T01:47:12;18.30;;;11.17;;
3068;SDS011;1545;51.728;8.796;2023-11-22T01:49:39;19.13;;;11.20;;
3068;SDS011;1545;51.728;8.796;2023-11-22T01:52:04;17.50;;;11.47;;
3068;SDS011;1545;51.728;8.796;2023-11-22T01:54:30;21.80;;;11.83;;
3068;SDS011;1545;51.728;8.796;2023-11-22T01:56:57;19.43;;;11.70;;
3068;SDS011;1545;51.728;8.796;2023-11-22T01:59:23;20.83;;;11.80;;
3068;SDS011;1545;51.728;8.796;2023-11-22T02:01:51;27.70;;;11.50;;
3068;SDS011;1545;51.728;8.796;2023-11-22T02:04:17;19.90;;;11.27;;
3068;SDS011;1545;51.728;8.796;2023-11-22T02:06:43;21.00;;;11.77;;
3068;SDS011;1545;51.728;8.796;2023-11-22T02:09:08;18.97;;;11.80;;
3068;SDS011;1545;51.728;8.796;2023-11-22T02:11:38;24.03;;;11.80;;
3068;SDS011;1545;51.728;8.796;2023-11-22T02:14:04;20.13;;;11.43;;
3068;SDS011;1545;51.728;8.796;2023-11-22T02:16:32;24.50;;;12.17;;
3068;SDS011;1545;51.728;8.796;2023-11-22T02:18:57;20.60;;;11.93;;
3068;SDS011;1545;51.728;8.796;2023-11-22T02:21:23;20.33;;;12.07;;
3068;SDS011;1545;51.728;8.796;2023-11-22T02:23:48;19.87;;;11.93;;
3068;SDS011;1545;51.728;8.796;2023-11-22T02:26:14;22.27;;;12.23;;
3068;SDS011;1545;51.728;8.796;2023-11-22T02:28:42;23.93;;;12.77;;
3068;SDS011;1545;51.728;8.796;2023-11-22T02:31:08;21.53;;;12.10;;
3068;SDS011;1545;51.728;8.796;2023-11-22T02:33:34;21.13;;;12.10;;
3068;SDS011;1545;51.728;8.796;2023-11-22T02:36:00;21.60;;;12.10;;
3068;SDS011;1545;51.728;8.796;2023-11-22T02:38:27;19.77;;;11.37;;
3068;SDS011;1545;51.728;8.796;2023-11-22T02:40:53;26.00;;;12.43;;
3068;SDS011;1545;51.728;8.796;2023-11-22T02:43:19;19.13;;;12.07;;
3068;SDS011;1545;51.728;8.796;2023-11-22T02:45:45;19.93;;;11.83;;
3068;SDS011;1545;51.728;8.796;2023-11-22T02:48:10;22.70;;;12.37;;
3068;SDS011;1545;51.728;8.796;2023-11-22T02:50:36;22.20;;;12.70;;
3068;SDS011;1545;51.728;8.796;2023-11-22T02:53:02;23.37;;;12.33;;
3068;SDS011;1545;51.728;8.796;2023-11-22T02:55:28;23.83;;;12.17;;
3068;SDS011;1545;51.728;8.796;2023-11-22T02:57:54;25.00;;;12.57;;
3068;SDS011;1545;51.728;8.796;2023-11-22T03:00:20;22.63;;;12.57;;
3068;SDS011;1545;51.728;8.796;2023-11-22T03:02:46;20.23;;;12.40;;
3068;SDS011;1545;51.728;8.796;2023-11-22T03:05:12;24.73;;;12.43;;
3068;SDS011;1545;51.728;8.796;2023-11-22T03:07:39;23.53;;;13.77;;
3068;SDS011;1545;51.728;8.796;2023-11-22T03:10:06;25.70;;;12.63;;
3068;SDS011;1545;51.728;8.796;2023-11-22T03:15:19;26.93;;;12.40;;
3068;SDS011;1545;51.728;8.796;2023-11-22T03:17:44;28.37;;;12.03;;
3068;SDS011;1545;51.728;8.796;2023-11-22T03:20:10;25.63;;;12.10;;
3068;SDS011;1545;51.728;8.796;2023-11-22T03:22:36;22.30;;;11.80;;
3068;SDS011;1545;51.728;8.796;2023-11-22T03:25:02;24.23;;;12.53;;
3068;SDS011;1545;51.728;8.796;2023-11-22T03:27:29;20.83;;;12.10;;
3068;SDS011;1545;51.728;8.796;2023-11-22T03:29:55;32.60;;;13.57;;
3068;SDS011;1545;51.728;8.796;2023-11-22T03:32:20;25.23;;;13.43;;
3068;SDS011;1545;51.728;8.796;2023-11-22T03:34:46;27.87;;;13.10;;
3068;SDS011;1545;51.728;8.796;2023-11-22T03:37:12;30.83;;;13.20;;
3068;SDS011;1545;51.728;8.796;2023-11-22T03:39:38;24.53;;;12.97;;
3068;SDS011;1545;51.728;8.796;2023-11-22T03:42:03;31.43;;;14.00;;
3068;SDS011;1545;51.728;8.796;2023-11-22T03:44:29;37.87;;;13.07;;
3068;SDS011;1545;51.728;8.796;2023-11-22T03:46:55;21.70;;;12.20;;
3068;SDS011;1545;51.728;8.796;2023-11-22T03:49:20;25.27;;;12.50;;
3068;SDS011;1545;51.728;8.796;2023-11-22T03:51:46;208.20;;;21.20;;
3068;SDS011;1545;51.728;8.796;2023-11-22T03:54:12;28.37;;;12.87;;
3068;SDS011;1545;51.728;8.796;2023-11-22T03:56:38;27.20;;;12.60;;
3068;SDS011;1545;51.728;8.796;2023-11-22T03:59:04;25.63;;;12.43;;
3068;SDS011;1545;51.728;8.796;2023-11-22T04:01:30;32.30;;;13.17;;
3068;SDS011;1545;51.728;8.796;2023-11-22T04:03:55;25.33;;;13.23;;
3068;SDS011;1545;51.728;8.796;2023-11-22T04:06:21;21.40;;;11.10;;
3068;SDS011;1545;51.728;8.796;2023-11-22T04:08:48;24.00;;;12.40;;
3068;SDS011;1545;51.728;8.796;2023-11-22T04:11:14;21.63;;;11.63;;
3068;SDS011;1545;51.728;8.796;2023-11-22T04:13:40;23.80;;;11.73;;
3068;SDS011;1545;51.728;8.796;2023-11-22T04:16:09;24.33;;;11.43;;
3068;SDS011;1545;51.728;8.796;2023-11-22T04:18:40;23.33;;;11.97;;
3068;SDS011;1545;51.728;8.796;2023-11-22T04:21:07;26.47;;;12.67;;
3068;SDS011;1545;51.728;8.796;2023-11-22T04:23:33;29.30;;;12.00;;
3068;SDS011;1545;51.728;8.796;2023-11-22T04:25:58;23.80;;;12.13;;
3068;SDS011;1545;51.728;8.796;2023-11-22T04:28:25;33.27;;;13.13;;
3068;SDS011;1545;51.728;8.796;2023-11-22T04:30:51;71.07;;;14.63;;
3068;SDS011;1545;51.728;8.796;2023-11-22T04:33:17;24.50;;;12.30;;
3068;SDS011;1545;51.728;8.796;2023-11-22T04:35:43;22.73;;;11.77;;
3068;SDS011;1545;51.728;8.796;2023-11-22T04:38:08;25.37;;;12.30;;
3068;SDS011;1545;51.728;8.796;2023-11-22T04:40:34;42.47;;;12.90;;
3068;SDS011;1545;51.728;8.796;2023-11-22T04:43:00;36.07;;;12.17;;
3068;SDS011;1545;51.728;8.796;2023-11-22T04:45:25;27.07;;;12.60;;
3068;SDS011;1545;51.728;8.796;2023-11-22T04:47:51;24.57;;;11.73;;
3068;SDS011;1545;51.728;8.796;2023-11-22T04:50:17;22.10;;;11.70;;
3068;SDS011;1545;51.728;8.796;2023-11-22T04:52:42;24.40;;;12.07;;
3068;SDS011;1545;51.728;8.796;2023-11-22T04:55:08;29.83;;;12.13;;
3068;SDS011;1545;51.728;8.796;2023-11-22T04:57:34;26.90;;;12.33;;
3068;SDS011;1545;51.728;8.796;2023-11-22T04:59:59;25.07;;;11.70;;
3068;SDS011;1545;51.728;8.796;2023-11-22T05:02:25;29.00;;;11.93;;
3068;SDS011;1545;51.728;8.796;2023-11-22T05:04:51;25.00;;;12.20;;
3068;SDS011;1545;51.728;8.796;2023-11-22T05:07:17;28.67;;;12.93;;
3068;SDS011;1545;51.728;8.796;2023-11-22T05:09:44;26.40;;;12.40;;
3068;SDS011;1545;51.728;8.796;2023-11-22T05:12:09;23.97;;;12.50;;
3068;SDS011;1545;51.728;8.796;2023-11-22T05:14:36;22.60;;;11.80;;
3068;SDS011;1545;51.728;8.796;2023-11-22T05:17:02;24.27;;;11.83;;
3068;SDS011;1545;51.728;8.796;2023-11-22T05:19:28;58.70;;;14.40;;
3068;SDS011;1545;51.728;8.796;2023-11-22T05:21:54;27.30;;;13.13;;
3068;SDS011;1545;51.728;8.796;2023-11-22T05:24:20;39.63;;;13.60;;
3068;SDS011;1545;51.728;8.796;2023-11-22T05:26:45;27.53;;;12.47;;
3068;SDS011;1545;51.728;8.796;2023-11-22T05:29:10;30.60;;;13.33;;
3068;SDS011;1545;51.728;8.796;2023-11-22T05:31:36;27.10;;;12.63;;
3068;SDS011;1545;51.728;8.796;2023-11-22T05:34:02;24.57;;;11.67;;
3068;SDS011;1545;51.728;8.796;2023-11-22T05:36:28;25.60;;;12.40;;
3068;SDS011;1545;51.728;8.796;2023-11-22T05:38:54;26.77;;;12.23;;
3068;SDS011;1545;51.728;8.796;2023-11-22T05:41:20;25.43;;;12.17;;
3068;SDS011;1545;51.728;8.796;2023-11-22T05:43:46;29.07;;;13.57;;
3068;SDS011;1545;51.728;8.796;2023-11-22T05:46:11;25.17;;;12.47;;
3068;SDS011;1545;51.728;8.796;2023-11-22T05:48:37;26.73;;;12.50;;
3068;SDS011;1545;51.728;8.796;2023-11-22T05:51:03;27.33;;;13.43;;
3068;SDS011;1545;51.728;8.796;2023-11-22T05:53:28;117.57;;;17.37;;
3068;SDS011;1545;51.728;8.796;2023-11-22T05:55:54;28.33;;;13.17;;
3068;SDS011;1545;51.728;8.796;2023-11-22T05:58:19;25.03;;;12.90;;
3068;SDS011;1545;51.728;8.796;2023-11-22T06:00:46;24.63;;;12.23;;
3068;SDS011;1545;51.728;8.796;2023-11-22T06:03:12;26.83;;;13.23;;
3068;SDS011;1545;51.728;8.796;2023-11-22T06:05:39;33.83;;;12.57;;
3068;SDS011;1545;51.728;8.796;2023-11-22T06:08:06;28.43;;;12.53;;
3068;SDS011;1545;51.728;8.796;2023-11-22T06:10:31;29.37;;;13.33;;
3068;SDS011;1545;51.728;8.796;2023-11-22T06:12:58;314.30;;;23.00;;
3068;SDS011;1545;51.728;8.796;2023-11-22T06:15:24;145.60;;;17.13;;
3068;SDS011;1545;51.728;8.796;2023-11-22T06:17:49;91.20;;;14.37;;
3068;SDS011;1545;51.728;8.796;2023-11-22T06:20:15;41.17;;;13.37;;
3068;SDS011;1545;51.728;8.796;2023-11-22T06:22:41;76.50;;;15.10;;
3068;SDS011;1545;51.728;8.796;2023-11-22T06:25:11;30.13;;;13.50;;
3068;SDS011;1545;51.728;8.796;2023-11-22T06:27:37;31.43;;;13.90;;
3068;SDS011;1545;51.728;8.796;2023-11-22T06:30:03;34.60;;;14.70;;
3068;SDS011;1545;51.728;8.796;2023-11-22T06:32:31;28.73;;;14.10;;
3068;SDS011;1545;51.728;8.796;2023-11-22T06:34:57;32.80;;;14.40;;
3068;SDS011;1545;51.728;8.796;2023-11-22T06:37:22;33.33;;;17.43;;
3068;SDS011;1545;51.728;8.796;2023-11-22T06:39:48;43.10;;;17.80;;
3068;SDS011;1545;51.728;8.796;2023-11-22T06:42:13;36.70;;;16.77;;
3068;SDS011;1545;51.728;8.796;2023-11-22T06:44:39;37.47;;;17.43;;
3068;SDS011;1545;51.728;8.796;2023-11-22T06:47:07;45.33;;;19.50;;
3068;SDS011;1545;51.728;8.796;2023-11-22T06:49:33;44.63;;;17.83;;
3068;SDS011;1545;51.728;8.796;2023-11-22T06:51:59;34.83;;;16.13;;
3068;SDS011;1545;51.728;8.796;2023-11-22T06:54:25;36.20;;;16.57;;
3068;SDS011;1545;51.728;8.796;2023-11-22T06:56:50;35.17;;;15.33;;
3068;SDS011;1545;51.728;8.796;2023-11-22T06:59:16;43.60;;;16.13;;
3068;SDS011;1545;51.728;8.796;2023-11-22T07:01:42;33.03;;;15.00;;
3068;SDS011;1545;51.728;8.796;2023-11-22T07:04:08;27.93;;;13.10;;
3068;SDS011;1545;51.728;8.796;2023-11-22T07:06:33;30.70;;;13.90;;
3068;SDS011;1545;51.728;8.796;2023-11-22T07:08:59;34.10;;;13.43;;
3068;SDS011;1545;51.728;8.796;2023-11-22T07:11:24;31.10;;;12.37;;
3068;SDS011;1545;51.728;8.796;2023-11-22T07:13:51;35.13;;;13.67;;
3068;SDS011;1545;51.728;8.796;2023-11-22T07:16:17;29.73;;;12.53;;
3068;SDS011;1545;51.728;8.796;2023-11-22T07:18:44;24.80;;;12.70;;
3068;SDS011;1545;51.728;8.796;2023-11-22T07:21:10;24.90;;;11.90;;
3068;SDS011;1545;51.728;8.796;2023-11-22T07:23:36;22.87;;;11.20;;
3068;SDS011;1545;51.728;8.796;2023-11-22T07:26:03;25.87;;;11.60;;
3068;SDS011;1545;51.728;8.796;2023-11-22T07:28:28;25.07;;;11.03;;
3068;SDS011;1545;51.728;8.796;2023-11-22T07:30:55;20.00;;;11.37;;
3068;SDS011;1545;51.728;8.796;2023-11-22T07:33:21;19.53;;;11.43;;
3068;SDS011;1545;51.728;8.796;2023-11-22T07:35:47;22.67;;;10.77;;
3068;SDS011;1545;51.728;8.796;2023-11-22T07:38:13;22.20;;;10.53;;
3068;SDS011;1545;51.728;8.796;2023-11-22T07:40:39;22.17;;;11.57;;
3068;SDS011;1545;51.728;8.796;2023-11-22T07:43:05;29.37;;;15.50;;
3068;SDS011;1545;51.728;8.796;2023-11-22T07:45:31;35.77;;;15.13;;
3068;SDS011;1545;51.728;8.796;2023-11-22T07:47:57;26.27;;;14.33;;
3068;SDS011;1545;51.728;8.796;2023-11-22T07:50:24;29.33;;;13.97;;
3068;SDS011;1545;51.728;8.796;2023-11-22T07:52:52;21.93;;;13.40;;
3068;SDS011;1545;51.728;8.796;2023-11-22T07:55:18;31.90;;;14.40;;
3068;SDS011;1545;51.728;8.796;2023-11-22T07:57:44;32.80;;;15.00;;
3068;SDS011;1545;51.728;8.796;2023-11-22T08:00:10;45.53;;;15.37;;
3068;SDS011;1545;51.728;8.796;2023-11-22T08:02:37;83.80;;;17.77;;
3068;SDS011;1545;51.728;8.796;2023-11-22T08:05:07;45.23;;;15.17;;
3068;SDS011;1545;51.728;8.796;2023-11-22T08:07:36;28.03;;;13.20;;
3068;SDS011;1545;51.728;8.796;2023-11-22T08:10:06;24.77;;;13.67;;
3068;SDS011;1545;51.728;8.796;2023-11-22T08:12:44;30.27;;;14.40;;
3068;SDS011;1545;51.728;8.796;2023-11-22T08:15:10;27.23;;;14.07;;
3068;SDS011;1545;51.728;8.796;2023-11-22T08:17:39;24.03;;;13.30;;
3068;SDS011;1545;51.728;8.796;2023-11-22T08:20:05;30.47;;;14.03;;
3068;SDS011;1545;51.728;8.796;2023-11-22T08:22:32;22.83;;;13.00;;
3068;SDS011;1545;51.728;8.796;2023-11-22T08:25:02;25.80;;;14.50;;
3068;SDS011;1545;51.728;8.796;2023-11-22T08:27:28;29.03;;;15.53;;
3068;SDS011;1545;51.728;8.796;2023-11-22T08:29:54;30.33;;;16.93;;
3068;SDS011;1545;51.728;8.796;2023-11-22T08:32:20;26.17;;;15.43;;
3068;SDS011;1545;51.728;8.796;2023-11-22T08:34:52;28.20;;;15.07;;
3068;SDS011;1545;51.728;8.796;2023-11-22T08:37:18;26.97;;;15.00;;
3068;SDS011;1545;51.728;8.796;2023-11-22T08:39:43;23.80;;;13.73;;
3068;SDS011;1545;51.728;8.796;2023-11-22T08:42:09;24.43;;;13.00;;
3068;SDS011;1545;51.728;8.796;2023-11-22T08:44:37;23.90;;;12.00;;
3068;SDS011;1545;51.728;8.796;2023-11-22T08:47:03;18.17;;;10.20;;
3068;SDS011;1545;51.728;8.796;2023-11-22T08:49:29;16.60;;;10.37;;
3068;SDS011;1545;51.728;8.796;2023-11-22T08:51:58;22.77;;;12.67;;
3068;SDS011;1545;51.728;8.796;2023-11-22T08:54:27;18.10;;;10.87;;
3068;SDS011;1545;51.728;8.796;2023-11-22T08:56:53;17.47;;;9.80;;
3068;SDS011;1545;51.728;8.796;2023-11-22T08:59:21;14.43;;;9.30;;
3068;SDS011;1545;51.728;8.796;2023-11-22T09:01:46;18.10;;;10.50;;
3068;SDS011;1545;51.728;8.796;2023-11-22T09:04:12;16.67;;;9.70;;
3068;SDS011;1545;51.728;8.796;2023-11-22T09:06:38;19.70;;;10.50;;
3068;SDS011;1545;51.728;8.796;2023-11-22T09:09:04;16.13;;;9.07;;
3068;SDS011;1545;51.728;8.796;2023-11-22T09:11:30;23.33;;;12.50;;
3068;SDS011;1545;51.728;8.796;2023-11-22T09:13:56;24.50;;;13.47;;
3068;SDS011;1545;51.728;8.796;2023-11-22T09:16:22;18.67;;;10.67;;
3068;SDS011;1545;51.728;8.796;2023-11-22T09:18:50;22.40;;;10.20;;
3068;SDS011;1545;51.728;8.796;2023-11-22T09:21:16;18.73;;;11.90;;
3068;SDS011;1545;51.728;8.796;2023-11-22T09:23:42;22.23;;;12.20;;
3068;SDS011;1545;51.728;8.796;2023-11-22T09:26:08;23.03;;;11.37;;
3068;SDS011;1545;51.728;8.796;2023-11-22T09:28:33;23.73;;;11.40;;
3068;SDS011;1545;51.728;8.796;2023-11-22T09:30:59;27.37;;;12.73;;
3068;SDS011;1545;51.728;8.796;2023-11-22T09:33:30;23.60;;;10.93;;
3068;SDS011;1545;51.728;8.796;2023-11-22T09:35:56;14.43;;;8.67;;
3068;SDS011;1545;51.728;8.796;2023-11-22T09:38:23;14.83;;;8.67;;
3068;SDS011;1545;51.728;8.796;2023-11-22T09:40:49;14.47;;;8.80;;
3068;SDS011;1545;51.728;8.796;2023-11-22T09:43:16;15.17;;;7.20;;
3068;SDS011;1545;51.728;8.796;2023-11-22T09:45:46;11.70;;;5.93;;
3068;SDS011;1545;51.728;8.796;2023-11-22T09:48:16;16.70;;;7.47;;
3068;SDS011;1545;51.728;8.796;2023-11-22T09:53:19;15.60;;;5.27;;
3068;SDS011;1545;51.728;8.796;2023-11-22T09:55:56;9.73;;;5.00;;
3068;SDS011;1545;51.728;8.796;2023-11-22T09:58:22;15.80;;;5.30;;
3068;SDS011;1545;51.728;8.796;2023-11-22T10:00:49;6.77;;;4.43;;
3068;SDS011;1545;51.728;8.796;2023-11-22T10:03:15;17.47;;;5.17;;
3068;SDS011;1545;51.728;8.796;2023-11-22T10:05:43;12.93;;;5.13;;
3068;SDS011;1545;51.728;8.796;2023-11-22T10:08:09;9.40;;;4.70;;
3068;SDS011;1545;51.728;8.796;2023-11-22T10:10:35;11.07;;;4.77;;
3068;SDS011;1545;51.728;8.796;2023-11-22T10:13:01;10.73;;;5.50;;
3068;SDS011;1545;51.728;8.796;2023-11-22T10:15:28;10.63;;;5.17;;
3068;SDS011;1545;51.728;8.796;2023-11-22T10:17:55;24.23;;;6.20;;
3068;SDS011;1545;51.728;8.796;2023-11-22T10:20:25;8.13;;;4.77;;
3068;SDS011;1545;51.728;8.796;2023-11-22T10:23:00;11.53;;;5.20;;
3068;SDS011;1545;51.728;8.796;2023-11-22T10:25:25;12.17;;;4.90;;
3068;SDS011;1545;51.728;8.796;2023-11-22T10:27:51;6.83;;;4.63;;
3068;SDS011;1545;51.728;8.796;2023-11-22T10:30:17;8.37;;;4.93;;
3068;SDS011;1545;51.728;8.796;2023-11-22T10:32:44;7.87;;;5.03;;
3068;SDS011;1545;51.728;8.796;2023-11-22T10:35:10;8.47;;;4.60;;
3068;SDS011;1545;51.728;8.796;2023-11-22T10:37:39;10.80;;;4.90;;
3068;SDS011;1545;51.728;8.796;2023-11-22T10:40:04;8.30;;;5.37;;
3068;SDS011;1545;51.728;8.796;2023-11-22T10:42:31;9.67;;;5.30;;
3068;SDS011;1545;51.728;8.796;2023-11-22T10:44:58;10.03;;;5.17;;
3068;SDS011;1545;51.728;8.796;2023-11-22T10:47:28;8.47;;;5.27;;
3068;SDS011;1545;51.728;8.796;2023-11-22T10:49:55;7.50;;;5.20;;
3068;SDS011;1545;51.728;8.796;2023-11-22T10:52:21;10.57;;;5.47;;
3068;SDS011;1545;51.728;8.796;2023-11-22T10:54:53;15.77;;;5.77;;
3068;SDS011;1545;51.728;8.796;2023-11-22T10:57:24;10.90;;;6.37;;
3068;SDS011;1545;51.728;8.796;2023-11-22T10:59:53;9.37;;;5.97;;
3068;SDS011;1545;51.728;8.796;2023-11-22T11:02:21;13.40;;;6.20;;
3068;SDS011;1545;51.728;8.796;2023-11-22T11:04:51;12.63;;;6.50;;
3068;SDS011;1545;51.728;8.796;2023-11-22T11:07:24;14.27;;;6.27;;
3068;SDS011;1545;51.728;8.796;2023-11-22T11:09:55;10.20;;;5.50;;
3068;SDS011;1545;51.728;8.796;2023-11-22T11:12:22;8.43;;;5.67;;
3068;SDS011;1545;51.728;8.796;2023-11-22T11:14:49;18.53;;;6.23;;
3068;SDS011;1545;51.728;8.796;2023-11-22T11:17:15;23.53;;;6.80;;
3068;SDS011;1545;51.728;8.796;2023-11-22T11:19:42;10.40;;;5.90;;
3068;SDS011;1545;51.728;8.796;2023-11-22T11:22:10;14.47;;;6.13;;
3068;SDS011;1545;51.728;8.796;2023-11-22T11:24:39;13.77;;;6.40;;
3068;SDS011;1545;51.728;8.796;2023-11-22T11:27:06;11.67;;;6.53;;
3068;SDS011;1545;51.728;8.796;2023-11-22T11:29:35;12.03;;;6.63;;
3068;SDS011;1545;51.728;8.796;2023-11-22T11:32:09;10.23;;;6.43;;
3068;SDS011;1545;51.728;8.796;2023-11-22T11:34:48;17.07;;;6.63;;
3068;SDS011;1545;51.728;8.796;2023-11-22T11:37:20;10.60;;;6.60;;
3068;SDS011;1545;51.728;8.796;2023-11-22T11:39:46;10.20;;;6.30;;
3068;SDS011;1545;51.728;8.796;2023-11-22T11:42:12;12.83;;;6.70;;
3068;SDS011;1545;51.728;8.796;2023-11-22T11:44:50;11.90;;;6.30;;
3068;SDS011;1545;51.728;8.796;2023-11-22T11:47:17;13.43;;;6.77;;
3068;SDS011;1545;51.728;8.796;2023-11-22T11:49:43;12.80;;;6.50;;
3068;SDS011;1545;51.728;8.796;2023-11-22T11:52:09;12.97;;;6.90;;
3068;SDS011;1545;51.728;8.796;2023-11-22T11:54:34;11.27;;;6.73;;
3068;SDS011;1545;51.728;8.796;2023-11-22T11:57:00;11.47;;;6.80;;
3068;SDS011;1545;51.728;8.796;2023-11-22T11:59:26;10.70;;;6.70;;
3068;SDS011;1545;51.728;8.796;2023-11-22T12:01:52;14.90;;;7.00;;
3068;SDS011;1545;51.728;8.796;2023-11-22T12:04:20;13.40;;;7.10;;
3068;SDS011;1545;51.728;8.796;2023-11-22T12:06:47;10.07;;;6.47;;
3068;SDS011;1545;51.728;8.796;2023-11-22T12:09:13;10.43;;;6.70;;
3068;SDS011;1545;51.728;8.796;2023-11-22T12:11:38;14.07;;;6.70;;
3068;SDS011;1545;51.728;8.796;2023-11-22T12:14:04;11.93;;;7.50;;
3068;SDS011;1545;51.728;8.796;2023-11-22T12:16:29;16.17;;;7.57;;
3068;SDS011;1545;51.728;8.796;2023-11-22T12:18:55;10.57;;;6.43;;
3068;SDS011;1545;51.728;8.796;2023-11-22T12:21:23;15.13;;;7.77;;
3068;SDS011;1545;51.728;8.796;2023-11-22T12:23:49;12.57;;;7.67;;
3068;SDS011;1545;51.728;8.796;2023-11-22T12:26:15;12.23;;;7.23;;
3068;SDS011;1545;51.728;8.796;2023-11-22T12:28:45;14.23;;;8.60;;
3068;SDS011;1545;51.728;8.796;2023-11-22T12:31:13;14.53;;;8.07;;
3068;SDS011;1545;51.728;8.796;2023-11-22T12:33:40;17.73;;;8.57;;
3068;SDS011;1545;51.728;8.796;2023-11-22T12:36:07;15.23;;;8.20;;
3068;SDS011;1545;51.728;8.796;2023-11-22T12:38:41;14.23;;;8.73;;
3068;SDS011;1545;51.728;8.796;2023-11-22T12:41:07;13.93;;;8.50;;
3068;SDS011;1545;51.728;8.796;2023-11-22T12:43:33;14.67;;;7.90;;
3068;SDS011;1545;51.728;8.796;2023-11-22T12:45:59;17.53;;;8.83;;
3068;SDS011;1545;51.728;8.796;2023-11-22T12:48:41;20.47;;;9.17;;
3068;SDS011;1545;51.728;8.796;2023-11-22T12:51:16;16.23;;;8.70;;
3068;SDS011;1545;51.728;8.796;2023-11-22T12:53:45;17.00;;;8.80;;
3068;SDS011;1545;51.728;8.796;2023-11-22T12:56:11;13.50;;;8.87;;
3068;SDS011;1545;51.728;8.796;2023-11-22T12:58:37;14.67;;;8.83;;
3068;SDS011;1545;51.728;8.796;2023-11-22T13:01:03;14.27;;;8.83;;
3068;SDS011;1545;51.728;8.796;2023-11-22T13:03:29;14.07;;;6.97;;
3068;SDS011;1545;51.728;8.796;2023-11-22T13:05:55;20.63;;;10.50;;
3068;SDS011;1545;51.728;8.796;2023-11-22T13:08:21;16.43;;;9.97;;
3068;SDS011;1545;51.728;8.796;2023-11-22T13:10:54;14.83;;;8.80;;
3068;SDS011;1545;51.728;8.796;2023-11-22T13:13:23;17.73;;;9.57;;
3068;SDS011;1545;51.728;8.796;2023-11-22T13:15:50;24.80;;;9.73;;
3068;SDS011;1545;51.728;8.796;2023-11-22T13:18:16;18.87;;;9.03;;
3068;SDS011;1545;51.728;8.796;2023-11-22T13:20:43;16.07;;;9.37;;
3068;SDS011;1545;51.728;8.796;2023-11-22T13:23:08;14.80;;;9.40;;
3068;SDS011;1545;51.728;8.796;2023-11-22T13:25:34;13.80;;;7.90;;
3068;SDS011;1545;51.728;8.796;2023-11-22T13:28:00;16.73;;;8.53;;
3068;SDS011;1545;51.728;8.796;2023-11-22T13:30:27;18.10;;;8.00;;
3068;SDS011;1545;51.728;8.796;2023-11-22T13:32:53;17.17;;;9.10;;
3068;SDS011;1545;51.728;8.796;2023-11-22T13:35:22;13.40;;;8.37;;
3068;SDS011;1545;51.728;8.796;2023-11-22T13:37:55;14.23;;;8.43;;
3068;SDS011;1545;51.728;8.796;2023-11-22T13:40:25;17.93;;;8.60;;
3068;SDS011;1545;51.728;8.796;2023-11-22T13:42:54;14.27;;;7.93;;
3068;SDS011;1545;51.728;8.796;2023-11-22T13:45:20;14.57;;;7.83;;
3068;SDS011;1545;51.728;8.796;2023-11-22T13:47:47;13.37;;;8.30;;
3068;SDS011;1545;51.728;8.796;2023-11-22T13:50:15;12.10;;;7.77;;
3068;SDS011;1545;51.728;8.796;2023-11-22T13:52:46;14.80;;;7.67;;
3068;SDS011;1545;51.728;8.796;2023-11-22T13:55:16;13.80;;;8.00;;
3068;SDS011;1545;51.728;8.796;2023-11-22T13:57:47;12.47;;;7.27;;
3068;SDS011;1545;51.728;8.796;2023-11-22T14:00:13;14.27;;;7.37;;
3068;SDS011;1545;51.728;8.796;2023-11-22T14:02:43;12.87;;;7.40;;
3068;SDS011;1545;51.728;8.796;2023-11-22T14:05:13;13.57;;;7.57;;
3068;SDS011;1545;51.728;8.796;2023-11-22T14:07:40;13.40;;;7.57;;
3068;SDS011;1545;51.728;8.796;2023-11-22T14:10:06;11.67;;;7.13;;
3068;SDS011;1545;51.728;8.796;2023-11-22T14:12:32;13.93;;;7.40;;
3068;SDS011;1545;51.728;8.796;2023-11-22T14:14:58;12.40;;;7.50;;
3068;SDS011;1545;51.728;8.796;2023-11-22T14:17:24;12.93;;;7.90;;
3068;SDS011;1545;51.728;8.796;2023-11-22T14:19:51;12.77;;;7.80;;
3068;SDS011;1545;51.728;8.796;2023-11-22T14:22:17;15.43;;;8.30;;
3068;SDS011;1545;51.728;8.796;2023-11-22T14:24:43;16.53;;;7.87;;
3068;SDS011;1545;51.728;8.796;2023-11-22T14:27:12;18.97;;;8.50;;
3068;SDS011;1545;51.728;8.796;2023-11-22T14:29:38;12.60;;;7.97;;
3068;SDS011;1545;51.728;8.796;2023-11-22T14:32:04;14.30;;;8.07;;
3068;SDS011;1545;51.728;8.796;2023-11-22T14:34:29;15.10;;;7.30;;
3068;SDS011;1545;51.728;8.796;2023-11-22T14:36:55;12.67;;;8.23;;
3068;SDS011;1545;51.728;8.796;2023-11-22T14:39:20;13.47;;;7.77;;
3068;SDS011;1545;51.728;8.796;2023-11-22T14:41:46;15.00;;;7.83;;
3068;SDS011;1545;51.728;8.796;2023-11-22T14:44:13;13.20;;;7.57;;
3068;SDS011;1545;51.728;8.796;2023-11-22T14:46:39;15.70;;;7.30;;
3068;SDS011;1545;51.728;8.796;2023-11-22T14:49:04;12.23;;;6.90;;
3068;SDS011;1545;51.728;8.796;2023-11-22T14:51:30;16.90;;;7.27;;
3068;SDS011;1545;51.728;8.796;2023-11-22T14:53:58;12.60;;;6.90;;